Time;durP1;ratioP1;P1;durP2;ratioP2;P2;SDS_P1;SDS_P2;PMS_P1;PMS_P2;Temp;Humidity;BMP_temperature;BMP_pressure;BME280_temperature;BME280_humidity;BME280_pressure;Samples;Min_cycle;Max_cycle;Signal;HPM_P1;HPM_P2
2021/12/19 00:00:32;;;;;;;39.20;16.70;;;-0.60;99.90;;;;;;5006060;28;20421;-60
2021/12/19 00:03:29;;;;;;;38.07;17.37;;;-0.60;99.90;;;;;;5006615;28;20726;-59
2021/12/19 00:10:59;;;;;;;171.50;21.83;;;-0.50;99.90;;;;;;5003873;28;20438;-60
2021/12/19 00:13:26;;;;;;;55.57;16.63;;;-0.60;99.90;;;;;;5006912;28;20940;-59
2021/12/19 00:15:53;;;;;;;82.50;18.70;;;-0.60;99.90;;;;;;5002111;28;20669;-60
2021/12/19 00:18:18;;;;;;;98.87;18.40;;;-0.60;99.90;;;;;;4994916;28;20551;-60
2021/12/19 00:20:44;;;;;;;110.60;18.87;;;-0.70;99.90;;;;;;5004376;28;20514;-59
2021/12/19 00:23:10;;;;;;;73.93;16.63;;;-0.70;99.90;;;;;;5008218;28;20425;-60
2021/12/19 00:25:36;;;;;;;73.87;17.07;;;-0.80;99.90;;;;;;4997351;28;20193;-60
2021/12/19 00:28:02;;;;;;;168.70;21.10;;;-0.80;99.90;;;;;;5007072;28;20456;-60
2021/12/19 00:30:28;;;;;;;37.57;15.67;;;-0.80;99.90;;;;;;4997885;28;20261;-60
2021/12/19 00:32:53;;;;;;;40.83;16.20;;;-0.80;99.90;;;;;;5003561;28;20433;-59
2021/12/19 00:35:19;;;;;;;50.83;16.13;;;-0.80;99.90;;;;;;5005575;28;20645;-61
2021/12/19 00:37:45;;;;;;;38.53;15.20;;;-0.90;99.90;;;;;;5003979;28;20229;-59
2021/12/19 00:40:12;;;;;;;43.07;16.50;;;-0.90;99.90;;;;;;5004153;28;20443;-60
2021/12/19 00:42:38;;;;;;;37.23;16.73;;;-0.90;99.90;;;;;;4999537;28;20443;-60
2021/12/19 00:45:16;;;;;;;37.37;16.40;;;-0.80;99.90;;;;;;5004505;28;20443;-58
2021/12/19 00:47:44;;;;;;;36.50;17.10;;;-0.80;99.90;;;;;;5003376;28;20844;-60
2021/12/19 00:50:11;;;;;;;44.20;16.87;;;-0.80;99.90;;;;;;5005003;28;20508;-59
2021/12/19 00:52:37;;;;;;;35.00;15.33;;;-0.80;99.90;;;;;;5001338;28;21044;-59
2021/12/19 00:55:03;;;;;;;50.17;16.63;;;-0.80;99.90;;;;;;5004769;28;20433;-60
2021/12/19 00:57:29;;;;;;;85.67;17.67;;;-0.80;99.90;;;;;;5005653;28;20202;-60
2021/12/19 00:59:55;;;;;;;44.97;15.40;;;-0.80;99.90;;;;;;5005986;28;20567;-60
2021/12/19 01:02:20;;;;;;;54.50;18.10;;;-0.80;99.90;;;;;;4995158;28;20306;-59
2021/12/19 01:04:46;;;;;;;42.63;17.33;;;-0.70;99.90;;;;;;4997383;28;20183;-60
2021/12/19 01:07:12;;;;;;;37.17;16.57;;;-0.70;99.90;;;;;;5005421;28;20214;-60
2021/12/19 01:09:37;;;;;;;59.87;17.60;;;-0.70;99.90;;;;;;5005064;28;20279;-60
2021/12/19 01:12:04;;;;;;;38.33;16.47;;;-0.70;99.90;;;;;;5005588;28;20637;-60
2021/12/19 01:14:30;;;;;;;40.03;18.40;;;-0.70;99.90;;;;;;5006336;28;20179;-60
2021/12/19 01:16:56;;;;;;;41.27;17.30;;;-0.70;99.90;;;;;;5004746;28;21108;-60
2021/12/19 01:19:22;;;;;;;83.93;19.27;;;-0.70;99.90;;;;;;4997745;28;20228;-59
2021/12/19 01:21:49;;;;;;;44.83;19.17;;;-0.70;99.90;;;;;;4999594;28;20174;-58
2021/12/19 01:24:15;;;;;;;59.00;19.17;;;-0.70;99.90;;;;;;4999640;28;20817;-60
2021/12/19 01:26:42;;;;;;;76.07;20.10;;;-0.70;99.90;;;;;;5001808;28;21070;-60
2021/12/19 01:29:10;;;;;;;40.70;16.90;;;-0.70;99.90;;;;;;5005381;28;20468;-60
2021/12/19 01:31:36;;;;;;;52.13;16.10;;;-0.70;99.90;;;;;;4993639;28;20464;-60
2021/12/19 01:34:01;;;;;;;43.27;17.10;;;-0.80;99.90;;;;;;5003681;28;20477;-58
2021/12/19 01:36:27;;;;;;;40.67;16.97;;;-0.80;99.90;;;;;;5005465;28;20193;-60
2021/12/19 01:38:53;;;;;;;36.80;17.30;;;-0.80;99.90;;;;;;5005534;28;20709;-59
2021/12/19 01:41:19;;;;;;;39.70;17.30;;;-0.70;99.90;;;;;;5006023;28;20192;-60
2021/12/19 01:43:45;;;;;;;38.10;18.40;;;-0.70;99.90;;;;;;5009427;28;20480;-60
2021/12/19 01:46:11;;;;;;;42.27;17.47;;;-0.60;99.90;;;;;;5007620;28;20432;-60
2021/12/19 01:48:36;;;;;;;38.27;16.90;;;-0.60;99.90;;;;;;4997325;28;20544;-60
2021/12/19 01:51:03;;;;;;;38.67;16.83;;;-0.70;99.90;;;;;;5003456;28;20877;-60
2021/12/19 01:53:29;;;;;;;46.20;18.40;;;-0.60;99.90;;;;;;5011044;28;20182;-60
2021/12/19 01:55:56;;;;;;;39.70;16.00;;;-0.70;99.90;;;;;;5022967;28;20477;-60
2021/12/19 01:58:21;;;;;;;44.63;15.90;;;-0.70;99.90;;;;;;5028873;28;20201;-62
2021/12/19 02:00:50;;;;;;;89.77;16.43;;;-0.70;99.90;;;;;;5013008;28;20456;-60
2021/12/19 02:03:16;;;;;;;106.17;17.00;;;-0.80;99.90;;;;;;5006954;28;20180;-60
2021/12/19 02:05:43;;;;;;;44.07;16.80;;;-0.80;99.90;;;;;;5004955;28;20444;-59
2021/12/19 02:08:10;;;;;;;71.10;15.90;;;-0.80;99.90;;;;;;5009768;28;20206;-60
2021/12/19 02:10:37;;;;;;;164.67;20.40;;;-0.90;99.90;;;;;;5007739;28;20505;-59
2021/12/19 02:13:04;;;;;;;37.03;15.13;;;-0.90;99.90;;;;;;5008576;28;20420;-59
2021/12/19 02:15:32;;;;;;;84.10;16.03;;;-0.90;99.90;;;;;;5007935;28;20518;-60
2021/12/19 02:18:00;;;;;;;67.33;17.23;;;-1.00;99.90;;;;;;5010517;28;20452;-60
2021/12/19 02:20:32;;;;;;;58.47;15.67;;;-1.00;99.90;;;;;;5007021;28;20432;-59
2021/12/19 02:22:58;;;;;;;64.10;17.03;;;-1.10;99.90;;;;;;5006995;28;20494;-59
2021/12/19 02:25:23;;;;;;;76.07;15.63;;;-1.10;99.90;;;;;;5009013;28;20916;-60
2021/12/19 02:27:49;;;;;;;47.97;17.40;;;-1.10;99.90;;;;;;5006878;28;20464;-59
2021/12/19 02:30:14;;;;;;;39.67;16.80;;;-1.20;99.90;;;;;;5005783;28;20201;-60
2021/12/19 02:32:41;;;;;;;47.77;15.70;;;-1.20;99.90;;;;;;5006945;28;20181;-60
2021/12/19 02:35:14;;;;;;;31.00;14.00;;;-1.20;99.90;;;;;;5010725;28;20556;-60
2021/12/19 02:40:38;;;;;;;60.73;16.57;;;-1.30;99.90;;;;;;5003905;28;20437;-60
2021/12/19 02:48:32;;;;;;;43.00;14.23;;;-1.30;99.90;;;;;;5007260;28;20584;-61
2021/12/19 02:50:58;;;;;;;32.50;14.27;;;-1.30;99.90;;;;;;5000474;28;20496;-59
2021/12/19 02:53:39;;;;;;;32.70;12.80;;;-1.30;99.90;;;;;;5005233;28;20182;-60
2021/12/19 02:56:11;;;;;;;31.00;13.20;;;-1.30;99.90;;;;;;5003566;28;20179;-60
2021/12/19 02:58:39;;;;;;;43.00;15.17;;;-1.40;99.90;;;;;;5004560;28;21069;-60
2021/12/19 03:01:12;;;;;;;46.53;15.40;;;-1.40;99.90;;;;;;5003453;28;20595;-60
2021/12/19 03:03:38;;;;;;;31.37;11.93;;;-1.40;99.90;;;;;;5003337;28;20517;-61
2021/12/19 03:06:05;;;;;;;30.93;14.23;;;-1.40;99.90;;;;;;5004038;28;20571;-61
2021/12/19 03:08:31;;;;;;;30.50;15.07;;;-1.40;99.90;;;;;;5004066;28;20455;-60
2021/12/19 03:17:56;;;;;;;28.90;13.80;;;-1.30;99.90;;;;;;5003701;28;21793;-60
2021/12/19 03:19:04;;;;;;;52.67;15.40;;;-1.20;99.90;;;;;;5004731;28;20441;-60
2021/12/19 03:21:30;;;;;;;34.03;15.10;;;-1.30;99.90;;;;;;5003317;28;20417;-61
2021/12/19 03:23:55;;;;;;;41.13;15.10;;;-1.30;99.90;;;;;;5005125;28;20604;-59
2021/12/19 03:26:21;;;;;;;52.53;14.70;;;-1.30;99.90;;;;;;5003213;28;20580;-60
2021/12/19 03:28:47;;;;;;;58.67;14.40;;;-1.30;99.90;;;;;;5002994;28;20206;-60
2021/12/19 03:31:13;;;;;;;37.67;15.50;;;-1.30;99.90;;;;;;4998515;28;20653;-60
2021/12/19 03:33:38;;;;;;;102.53;16.73;;;-1.30;99.90;;;;;;5001012;28;20182;-60
2021/12/19 03:36:07;;;;;;;33.43;14.70;;;-1.30;99.90;;;;;;5001274;28;20435;-61
2021/12/19 03:38:39;;;;;;;34.10;14.67;;;-1.40;99.90;;;;;;5003776;28;20579;-60
2021/12/19 03:43:37;;;;;;;39.60;14.67;;;-1.40;99.90;;;;;;5003660;28;20460;-60
2021/12/19 03:46:03;;;;;;;34.00;15.37;;;-1.30;99.90;;;;;;5004658;28;20472;-60
2021/12/19 03:48:28;;;;;;;38.53;15.80;;;-1.30;99.90;;;;;;5002503;28;20492;-60
2021/12/19 03:50:54;;;;;;;33.93;15.07;;;-1.30;99.90;;;;;;5002131;28;20201;-59
2021/12/19 03:53:22;;;;;;;33.00;16.20;;;-1.30;99.90;;;;;;5001806;28;20220;-60
2021/12/19 03:55:49;;;;;;;33.60;15.20;;;-1.30;99.90;;;;;;5001626;28;20233;-60
2021/12/19 03:58:15;;;;;;;37.00;15.80;;;-1.30;99.90;;;;;;5001813;28;20460;-59
2021/12/19 04:00:42;;;;;;;36.40;14.50;;;-1.30;99.90;;;;;;5001028;28;20419;-60
2021/12/19 04:03:10;;;;;;;34.27;15.43;;;-1.30;99.90;;;;;;5002048;28;20439;-60
2021/12/19 04:05:40;;;;;;;32.73;14.40;;;-1.20;99.90;;;;;;5004140;28;20437;-59
2021/12/19 04:08:06;;;;;;;26.80;13.30;;;-1.20;99.90;;;;;;5005835;28;20969;-59
2021/12/19 04:10:31;;;;;;;39.20;14.70;;;-1.20;99.90;;;;;;5004203;28;20432;-60
2021/12/19 04:12:57;;;;;;;33.77;14.07;;;-1.20;99.90;;;;;;5002575;28;20977;-60
2021/12/19 04:15:23;;;;;;;32.03;14.23;;;-1.30;99.90;;;;;;5003956;28;20178;-60
2021/12/19 04:17:50;;;;;;;34.13;14.83;;;-1.30;99.90;;;;;;5003016;28;20459;-59
2021/12/19 04:20:18;;;;;;;35.90;14.03;;;-1.30;99.90;;;;;;5003237;28;20440;-60
2021/12/19 04:22:44;;;;;;;34.57;14.70;;;-1.30;99.90;;;;;;5004265;28;20421;-60
2021/12/19 04:25:10;;;;;;;32.90;14.67;;;-1.20;99.90;;;;;;5039821;23;20600;-58
2021/12/19 04:27:37;;;;;;;30.23;13.60;;;-1.30;99.90;;;;;;5023408;28;20463;-59
2021/12/19 04:30:05;;;;;;;31.23;13.77;;;-1.30;99.90;;;;;;5020475;28;20522;-59
2021/12/19 04:32:36;;;;;;;31.60;14.40;;;-1.30;99.90;;;;;;5038497;28;20537;-57
2021/12/19 04:35:02;;;;;;;29.83;13.63;;;-1.30;99.90;;;;;;5014153;28;20453;-56
2021/12/19 04:56:17;;;;;;;31.60;14.53;;;-1.40;99.90;;;;;;5006181;28;20535;-57
2021/12/19 05:04:22;;;;;;;29.40;14.53;;;-1.50;99.90;;;;;;5005693;28;20468;-56
2021/12/19 05:14:04;;;;;;;35.70;13.90;;;-1.50;99.90;;;;;;5005925;28;21288;-57
2021/12/19 05:15:05;;;;;;;31.97;14.33;;;-1.40;99.90;;;;;;5007404;28;20961;-57
2021/12/19 05:17:31;;;;;;;31.77;14.83;;;-1.40;99.90;;;;;;5006927;28;20488;-58
2021/12/19 05:20:17;;;;;;;33.23;15.87;;;-1.40;99.90;;;;;;5006255;28;21198;-58
2021/12/19 05:22:48;;;;;;;27.87;12.80;;;-1.40;99.90;;;;;;5006615;28;20923;-55
2021/12/19 05:25:17;;;;;;;25.43;11.70;;;-1.40;99.90;;;;;;5008264;28;20456;-58
2021/12/19 05:27:49;;;;;;;28.60;11.70;;;-1.40;99.90;;;;;;5006010;28;20453;-56
2021/12/19 05:30:16;;;;;;;21.77;12.23;;;-1.40;99.90;;;;;;5004526;28;20429;-58
2021/12/19 05:32:43;;;;;;;28.57;13.00;;;-1.40;99.90;;;;;;5006311;28;20413;-58
2021/12/19 05:35:11;;;;;;;26.37;12.47;;;-1.50;99.90;;;;;;5007282;28;20428;-59
2021/12/19 05:45:50;;;;;;;28.93;13.37;;;-1.50;99.90;;;;;;5007314;28;20460;-56
2021/12/19 05:48:16;;;;;;;29.17;12.80;;;-1.50;99.90;;;;;;5001699;28;20464;-60
2021/12/19 05:50:42;;;;;;;29.77;12.90;;;-1.50;99.90;;;;;;5004856;28;20438;-57
2021/12/19 05:53:12;;;;;;;28.30;12.83;;;-1.60;99.90;;;;;;5005295;28;20173;-58
2021/12/19 05:55:39;;;;;;;32.60;13.30;;;-1.60;99.90;;;;;;5003926;28;20501;-57
2021/12/19 05:58:05;;;;;;;22.53;10.77;;;-1.60;99.90;;;;;;5003477;28;20434;-60
2021/12/19 06:00:32;;;;;;;27.90;13.23;;;-1.60;99.90;;;;;;5007007;28;20538;-57
2021/12/19 06:02:59;;;;;;;27.30;11.67;;;-1.70;99.90;;;;;;5006562;28;20432;-59
2021/12/19 06:05:24;;;;;;;23.40;10.90;;;-1.70;99.90;;;;;;5006164;28;20844;-58
2021/12/19 06:07:50;;;;;;;24.50;11.97;;;-1.70;99.90;;;;;;5019227;28;20484;-61
2021/12/19 06:10:16;;;;;;;25.73;13.13;;;-1.80;99.90;;;;;;5027409;28;20184;-60
2021/12/19 06:12:42;;;;;;;27.03;10.47;;;-1.80;99.90;;;;;;5017945;28;20196;-57
2021/12/19 06:15:09;;;;;;;25.83;11.17;;;-1.90;99.90;;;;;;5008301;28;20208;-55
2021/12/19 06:17:37;;;;;;;27.13;12.37;;;-1.90;99.90;;;;;;5007324;28;20177;-58
2021/12/19 06:20:04;;;;;;;21.90;10.90;;;-1.90;99.90;;;;;;5004467;28;20601;-57
2021/12/19 06:22:29;;;;;;;23.23;11.20;;;-1.90;99.90;;;;;;5005672;28;20454;-57
2021/12/19 06:24:55;;;;;;;25.67;12.43;;;-2.00;99.90;;;;;;5006822;28;20484;-58
2021/12/19 06:27:21;;;;;;;24.50;11.20;;;-2.00;99.90;;;;;;5005924;28;20224;-56
2021/12/19 06:29:49;;;;;;;25.90;12.50;;;-1.90;99.90;;;;;;5007676;28;20445;-61
2021/12/19 06:32:15;;;;;;;29.33;13.70;;;-1.90;99.90;;;;;;5026470;28;21067;-60
2021/12/19 06:34:41;;;;;;;29.20;12.93;;;-1.90;99.90;;;;;;5040161;28;20551;-60
2021/12/19 06:37:09;;;;;;;33.33;13.90;;;-1.90;99.90;;;;;;5008699;28;20743;-59
2021/12/19 06:39:36;;;;;;;39.03;12.70;;;-1.90;99.90;;;;;;5004497;28;20178;-58
2021/12/19 06:42:04;;;;;;;32.90;12.40;;;-1.90;99.90;;;;;;5004845;28;20532;-59
2021/12/19 06:44:30;;;;;;;26.10;12.87;;;-1.90;99.90;;;;;;5003871;28;20841;-58
2021/12/19 06:46:56;;;;;;;32.93;13.70;;;-1.90;99.90;;;;;;5004178;28;20954;-56
2021/12/19 06:49:21;;;;;;;29.97;13.20;;;-2.00;99.90;;;;;;5005288;28;20773;-59
2021/12/19 06:51:47;;;;;;;38.10;12.67;;;-2.00;99.90;;;;;;5002308;28;20236;-58
2021/12/19 06:54:13;;;;;;;32.20;14.13;;;-2.00;99.90;;;;;;5004966;28;20204;-58
2021/12/19 06:56:38;;;;;;;28.57;13.20;;;-2.00;99.90;;;;;;5007081;28;20178;-57
2021/12/19 06:59:04;;;;;;;31.00;13.53;;;-2.00;99.90;;;;;;5002567;28;20223;-60
2021/12/19 07:01:30;;;;;;;34.90;13.00;;;-1.90;99.90;;;;;;5003708;28;20425;-60
2021/12/19 07:03:56;;;;;;;29.50;13.97;;;-1.90;99.90;;;;;;5006219;28;20645;-58
2021/12/19 07:06:22;;;;;;;26.90;12.60;;;-1.90;99.90;;;;;;5002349;28;20437;-59
2021/12/19 07:08:48;;;;;;;32.93;12.90;;;-1.80;99.90;;;;;;5004743;28;20712;-56
2021/12/19 07:11:13;;;;;;;42.63;13.73;;;-1.80;99.90;;;;;;5002823;28;20701;-59
2021/12/19 07:13:39;;;;;;;32.47;13.63;;;-1.80;99.90;;;;;;5002803;28;20288;-59
2021/12/19 07:16:06;;;;;;;52.00;15.17;;;-1.80;99.90;;;;;;5004809;28;20238;-63
2021/12/19 07:18:32;;;;;;;33.30;13.50;;;-1.80;99.90;;;;;;5004506;28;20177;-57
2021/12/19 07:20:58;;;;;;;29.80;13.30;;;-1.90;99.90;;;;;;5002083;28;20877;-58
2021/12/19 07:23:24;;;;;;;32.13;13.93;;;-1.80;99.90;;;;;;5003415;28;20482;-55
2021/12/19 07:25:50;;;;;;;30.07;14.20;;;-1.80;99.90;;;;;;5002821;28;20354;-57
2021/12/19 07:28:16;;;;;;;33.70;13.93;;;-1.80;99.90;;;;;;5003731;28;20768;-57
2021/12/19 07:30:42;;;;;;;32.80;14.40;;;-1.80;99.90;;;;;;5004029;28;20425;-58
2021/12/19 07:33:10;;;;;;;27.70;13.13;;;-1.80;99.90;;;;;;5000398;28;20185;-58
2021/12/19 07:35:38;;;;;;;31.30;14.07;;;-1.80;99.90;;;;;;5003063;28;20970;-56
2021/12/19 07:38:09;;;;;;;33.27;14.97;;;-1.80;99.90;;;;;;5002337;28;21230;-59
2021/12/19 07:40:38;;;;;;;31.87;14.90;;;-1.80;99.90;;;;;;5002336;28;20889;-57
2021/12/19 07:43:10;;;;;;;36.00;15.27;;;-1.80;99.90;;;;;;5003932;28;20444;-60
2021/12/19 07:45:36;;;;;;;35.30;14.97;;;-1.80;99.90;;;;;;5004964;28;20456;-57
2021/12/19 07:48:03;;;;;;;35.77;14.77;;;-1.70;99.90;;;;;;5002581;28;20566;-58
2021/12/19 07:50:29;;;;;;;30.83;14.03;;;-1.70;99.90;;;;;;5001462;28;21174;-58
2021/12/19 07:52:55;;;;;;;31.80;15.03;;;-1.70;99.90;;;;;;5004279;28;20433;-55
2021/12/19 07:55:22;;;;;;;35.63;15.67;;;-1.70;99.90;;;;;;5002858;28;21033;-58
2021/12/19 07:57:48;;;;;;;33.93;13.70;;;-1.80;99.90;;;;;;4998442;28;20451;-57
2021/12/19 08:00:15;;;;;;;33.77;14.47;;;-1.80;99.90;;;;;;5003648;28;20434;-59
2021/12/19 08:02:42;;;;;;;33.63;13.57;;;-1.80;99.90;;;;;;5003830;28;20214;-60
2021/12/19 08:05:08;;;;;;;31.70;13.17;;;-1.70;99.90;;;;;;5003275;28;20776;-58
2021/12/19 08:07:34;;;;;;;36.57;14.47;;;-1.70;99.90;;;;;;5003934;28;20475;-61
2021/12/19 08:12:38;;;;;;;28.93;14.10;;;-1.70;99.90;;;;;;4995113;28;20174;-58
2021/12/19 08:15:05;;;;;;;35.37;16.17;;;-1.70;99.90;;;;;;4998537;28;20460;-59
2021/12/19 08:17:31;;;;;;;33.83;13.90;;;-1.70;99.90;;;;;;5004713;28;20467;-56
2021/12/19 08:19:58;;;;;;;36.07;14.63;;;-1.60;99.90;;;;;;5019923;28;20444;-59
2021/12/19 08:22:24;;;;;;;39.47;14.80;;;-1.50;99.90;;;;;;5022047;28;20526;-58
2021/12/19 08:24:50;;;;;;;33.70;14.87;;;-1.50;99.90;;;;;;5023891;28;20483;-60
2021/12/19 08:27:17;;;;;;;45.40;16.70;;;-1.50;99.90;;;;;;5024686;28;20481;-60
2021/12/19 08:29:42;;;;;;;40.17;15.50;;;-1.50;99.90;;;;;;5014716;28;20902;-63
2021/12/19 08:32:09;;;;;;;37.33;14.80;;;-1.60;99.90;;;;;;5004127;28;20742;-58
2021/12/19 08:34:35;;;;;;;42.30;15.63;;;-1.60;99.90;;;;;;5002145;28;20213;-56
2021/12/19 08:37:02;;;;;;;37.53;16.13;;;-1.60;99.90;;;;;;5005218;28;20492;-57
2021/12/19 08:39:29;;;;;;;34.67;14.97;;;-1.60;99.90;;;;;;5021610;28;20440;-59
2021/12/19 08:41:54;;;;;;;42.90;16.80;;;-1.70;99.90;;;;;;5010852;28;21293;-57
2021/12/19 08:44:20;;;;;;;46.77;17.40;;;-1.60;99.90;;;;;;5010690;28;20460;-59
2021/12/19 08:46:46;;;;;;;42.73;16.63;;;-1.60;99.90;;;;;;5010526;28;20696;-56
2021/12/19 08:49:12;;;;;;;38.30;14.87;;;-1.60;99.90;;;;;;5010739;28;21080;-60
2021/12/19 08:51:39;;;;;;;42.53;16.90;;;-1.60;99.90;;;;;;5015264;28;20483;-57
2021/12/19 08:54:06;;;;;;;34.60;15.50;;;-1.60;99.90;;;;;;5029080;28;20162;-60
2021/12/19 08:56:32;;;;;;;39.57;17.00;;;-1.60;99.90;;;;;;5025172;28;20500;-59
2021/12/19 08:58:59;;;;;;;35.50;15.53;;;-1.60;99.90;;;;;;5025828;28;20450;-58
2021/12/19 09:01:26;;;;;;;35.37;16.33;;;-1.50;99.90;;;;;;5003568;28;20446;-58
2021/12/19 09:03:52;;;;;;;46.90;19.50;;;-1.50;99.90;;;;;;5009242;28;20931;-59
2021/12/19 09:06:17;;;;;;;40.90;16.53;;;-1.50;99.90;;;;;;5022230;28;20451;-60
2021/12/19 09:08:43;;;;;;;42.57;17.87;;;-1.50;99.90;;;;;;5029111;28;20190;-60
2021/12/19 09:11:09;;;;;;;36.77;15.30;;;-1.50;99.90;;;;;;5025286;28;20185;-60
2021/12/19 09:13:35;;;;;;;41.40;16.30;;;-1.40;99.90;;;;;;5040438;28;20200;-57
2021/12/19 09:16:01;;;;;;;41.93;16.20;;;-1.40;99.90;;;;;;5029579;28;20189;-60
2021/12/19 09:18:28;;;;;;;50.70;16.90;;;-1.30;99.90;;;;;;5019578;28;20565;-56
2021/12/19 09:20:54;;;;;;;38.70;15.80;;;-1.20;99.90;;;;;;5007317;28;20783;-57
2021/12/19 09:23:20;;;;;;;50.53;16.60;;;-1.20;99.90;;;;;;5008198;28;20420;-55
2021/12/19 09:25:46;;;;;;;38.00;17.50;;;-1.10;99.90;;;;;;5009947;28;20566;-56
2021/12/19 09:28:12;;;;;;;36.43;16.40;;;-1.10;99.90;;;;;;5005192;28;20205;-55
2021/12/19 09:30:38;;;;;;;48.93;18.20;;;-1.10;99.90;;;;;;5004778;28;20579;-57
2021/12/19 09:33:04;;;;;;;36.27;16.23;;;-1.00;99.90;;;;;;5007882;28;20190;-58
2021/12/19 09:35:30;;;;;;;34.93;15.20;;;-1.00;99.90;;;;;;4996046;28;20488;-55
2021/12/19 09:37:56;;;;;;;41.03;16.50;;;-1.00;99.90;;;;;;5002103;28;21251;-58
2021/12/19 09:40:31;;;;;;;32.20;15.10;;;-1.00;99.90;;;;;;5003806;28;20448;-57
2021/12/19 09:43:01;;;;;;;32.93;15.37;;;-1.00;99.90;;;;;;5002364;28;20184;-59
2021/12/19 09:45:28;;;;;;;36.70;15.70;;;-0.80;99.90;;;;;;5001447;28;21197;-57
2021/12/19 09:47:53;;;;;;;30.63;13.20;;;-0.80;99.90;;;;;;5005840;28;20587;-57
2021/12/19 09:50:20;;;;;;;35.37;15.97;;;-0.70;99.90;;;;;;5017988;28;20484;-57
2021/12/19 09:52:47;;;;;;;34.07;15.53;;;-0.60;99.90;;;;;;5025315;28;20441;-58
2021/12/19 09:55:18;;;;;;;38.00;15.00;;;-0.50;99.90;;;;;;5006186;28;20548;-57
2021/12/19 09:57:45;;;;;;;37.40;16.50;;;-0.50;99.90;;;;;;5003955;28;20452;-57
2021/12/19 10:00:11;;;;;;;33.90;15.10;;;-0.40;99.90;;;;;;5000962;28;20528;-53
2021/12/19 10:02:37;;;;;;;35.67;15.60;;;-0.30;99.90;;;;;;5005782;28;20464;-57
2021/12/19 10:05:24;;;;;;;32.07;15.23;;;-0.20;99.90;;;;;;5001247;28;23043;-59
2021/12/19 10:08:09;;;;;;;39.57;17.60;;;-0.20;99.90;;;;;;5022402;28;20476;-60
2021/12/19 10:10:47;;;;;;;44.80;18.40;;;0.00;99.90;;;;;;5034232;28;20528;-57
2021/12/19 10:13:14;;;;;;;44.80;19.60;;;0.10;99.90;;;;;;5015190;28;20441;-59
2021/12/19 10:15:43;;;;;;;42.17;18.30;;;0.30;99.90;;;;;;5002317;28;20539;-59
2021/12/19 10:18:12;;;;;;;40.57;18.33;;;0.40;99.90;;;;;;4998043;28;20425;-59
2021/12/19 10:20:40;;;;;;;40.00;17.40;;;0.50;99.90;;;;;;5000903;28;20431;-56
2021/12/19 10:23:16;;;;;;;35.00;17.00;;;0.60;99.90;;;;;;5001387;28;20879;-57
2021/12/19 10:25:43;;;;;;;34.07;15.47;;;0.60;99.90;;;;;;5025904;22;20987;-59
2021/12/19 10:28:10;;;;;;;33.33;15.50;;;0.70;99.90;;;;;;4998660;28;20493;-59
2021/12/19 10:30:46;;;;;;;30.70;14.77;;;0.80;99.90;;;;;;5004085;28;20449;-60
2021/12/19 10:33:17;;;;;;;34.00;15.07;;;0.90;99.90;;;;;;5002948;28;20421;-60
2021/12/19 10:35:50;;;;;;;35.30;15.57;;;1.00;99.90;;;;;;5000708;28;20454;-60
2021/12/19 10:38:41;;;;;;;29.13;14.63;;;1.10;99.90;;;;;;5000586;28;20437;-59
2021/12/19 10:41:13;;;;;;;36.97;16.40;;;1.20;99.90;;;;;;4999456;28;21056;-59
2021/12/19 10:43:45;;;;;;;32.03;15.40;;;1.20;99.90;;;;;;4996912;28;20487;-60
2021/12/19 10:46:11;;;;;;;28.07;14.17;;;1.40;99.90;;;;;;5001812;28;20501;-60
2021/12/19 10:48:42;;;;;;;31.13;15.37;;;1.50;99.90;;;;;;5001255;28;20457;-60
2021/12/19 10:51:11;;;;;;;27.53;13.87;;;1.50;99.90;;;;;;4999839;28;20457;-59
2021/12/19 10:53:52;;;;;;;36.73;16.13;;;1.60;99.90;;;;;;5018308;28;20425;-60
2021/12/19 10:56:22;;;;;;;32.07;14.67;;;1.70;99.90;;;;;;4999313;28;20445;-59
2021/12/19 10:58:54;;;;;;;28.90;15.23;;;1.70;99.90;;;;;;5002774;28;20447;-61
2021/12/19 11:01:25;;;;;;;29.57;13.93;;;1.80;99.90;;;;;;4999032;28;20433;-61
2021/12/19 11:03:56;;;;;;;26.93;14.10;;;1.90;99.90;;;;;;4998598;28;20426;-59
2021/12/19 11:06:23;;;;;;;27.60;14.83;;;2.10;99.90;;;;;;4996791;28;20529;-59
2021/12/19 11:08:51;;;;;;;29.63;14.23;;;2.20;99.90;;;;;;4998927;28;20423;-59
2021/12/19 11:11:33;;;;;;;34.73;15.63;;;2.30;99.90;;;;;;4998062;28;20533;-57
2021/12/19 11:13:59;;;;;;;29.40;14.60;;;2.50;99.90;;;;;;4993568;28;20437;-60
2021/12/19 11:16:25;;;;;;;29.97;16.00;;;2.70;99.90;;;;;;4994625;28;21183;-59
2021/12/19 11:18:51;;;;;;;35.50;15.97;;;2.80;99.90;;;;;;4997099;28;20443;-60
2021/12/19 11:21:18;;;;;;;31.77;15.13;;;3.00;99.50;;;;;;4994183;28;20435;-60
2021/12/19 11:23:46;;;;;;;31.53;15.10;;;3.00;98.60;;;;;;4999469;28;20208;-59
2021/12/19 11:26:11;;;;;;;30.77;14.00;;;3.10;99.30;;;;;;4998032;28;20509;-60
2021/12/19 11:28:38;;;;;;;30.20;15.37;;;3.20;98.70;;;;;;4999112;28;20497;-58
2021/12/19 11:31:05;;;;;;;26.90;14.77;;;3.30;98.30;;;;;;4992953;28;20435;-59
2021/12/19 11:33:39;;;;;;;26.90;14.27;;;3.30;97.60;;;;;;4993815;28;20438;-60
2021/12/19 11:36:07;;;;;;;31.07;14.87;;;3.20;97.60;;;;;;4997789;28;20454;-58
2021/12/19 11:38:36;;;;;;;28.13;14.90;;;3.20;97.00;;;;;;5020667;28;20535;-60
2021/12/19 11:41:07;;;;;;;23.47;13.37;;;3.10;97.10;;;;;;4990527;28;20464;-58
2021/12/19 11:43:38;;;;;;;29.47;15.00;;;3.10;98.00;;;;;;5003045;28;20760;-59
2021/12/19 11:46:11;;;;;;;28.67;14.83;;;3.00;98.30;;;;;;5000765;28;21014;-59
2021/12/19 11:48:36;;;;;;;27.70;14.37;;;3.00;98.50;;;;;;4999649;28;20471;-59
2021/12/19 11:51:19;;;;;;;26.37;13.67;;;2.90;98.80;;;;;;4998611;28;20449;-60
2021/12/19 11:53:46;;;;;;;25.60;15.40;;;2.80;99.30;;;;;;4999881;28;20195;-60
2021/12/19 11:56:16;;;;;;;25.63;14.37;;;2.70;99.90;;;;;;5004423;28;20455;-59
2021/12/19 11:58:49;;;;;;;28.43;14.47;;;2.70;99.90;;;;;;4997286;28;21183;-59
2021/12/19 12:01:29;;;;;;;30.83;14.10;;;2.60;99.90;;;;;;5005274;28;20443;-60
2021/12/19 12:03:59;;;;;;;23.20;13.00;;;2.60;99.90;;;;;;5007281;28;20453;-59
2021/12/19 12:06:34;;;;;;;27.13;14.13;;;2.60;99.90;;;;;;5002026;28;21106;-60
2021/12/19 12:09:11;;;;;;;27.90;12.67;;;2.60;99.90;;;;;;5002635;28;20451;-60
2021/12/19 12:11:57;;;;;;;34.03;14.00;;;2.60;99.90;;;;;;5002071;28;20442;-59
2021/12/19 12:14:29;;;;;;;28.70;14.50;;;2.70;99.90;;;;;;5013088;28;20513;-58
2021/12/19 12:16:58;;;;;;;23.77;12.97;;;2.70;99.90;;;;;;5006419;28;20988;-60
2021/12/19 12:19:53;;;;;;;27.03;13.40;;;2.80;99.90;;;;;;5015028;28;20427;-59
2021/12/19 12:22:25;;;;;;;29.53;13.30;;;2.80;99.90;;;;;;5006318;28;20510;-60
2021/12/19 12:25:16;;;;;;;26.73;15.10;;;2.80;99.90;;;;;;5006202;28;20550;-58
2021/12/19 12:27:48;;;;;;;28.00;15.13;;;2.90;99.90;;;;;;5007654;28;20569;-58
2021/12/19 12:30:24;;;;;;;29.60;15.53;;;2.90;99.90;;;;;;5005033;28;20919;-59
2021/12/19 12:32:50;;;;;;;28.53;14.17;;;3.00;99.90;;;;;;4998219;28;20429;-61
2021/12/19 12:35:17;;;;;;;28.73;14.07;;;3.00;99.90;;;;;;5002906;28;21000;-61
2021/12/19 12:37:44;;;;;;;25.20;13.53;;;3.10;99.90;;;;;;5025059;28;20442;-61
2021/12/19 12:40:45;;;;;;;25.60;14.67;;;3.10;99.90;;;;;;5001219;28;20496;-60
2021/12/19 12:43:22;;;;;;;21.70;12.30;;;3.20;99.90;;;;;;5004294;28;20429;-59
2021/12/19 12:46:01;;;;;;;25.30;12.70;;;3.30;99.90;;;;;;5005013;28;20463;-59
2021/12/19 12:48:31;;;;;;;23.73;13.73;;;3.30;99.90;;;;;;5005098;28;20533;-59
2021/12/19 12:50:57;;;;;;;24.00;12.70;;;3.30;99.90;;;;;;5000979;28;20446;-59
2021/12/19 12:53:28;;;;;;;24.87;12.53;;;3.40;99.90;;;;;;5015064;28;20459;-58
2021/12/19 12:56:11;;;;;;;22.40;13.63;;;3.40;99.90;;;;;;5018508;28;20458;-61
2021/12/19 12:58:39;;;;;;;24.17;13.27;;;3.40;99.90;;;;;;5005624;28;20444;-59
2021/12/19 13:01:15;;;;;;;28.77;14.77;;;3.40;99.90;;;;;;4997191;28;20458;-60
2021/12/19 13:03:57;;;;;;;20.53;12.50;;;3.50;99.90;;;;;;4999601;28;20453;-60
2021/12/19 13:06:58;;;;;;;28.17;13.90;;;3.50;99.90;;;;;;5003851;28;20546;-60
2021/12/19 13:09:39;;;;;;;21.37;11.90;;;3.60;99.90;;;;;;4992260;28;20450;-58
2021/12/19 13:12:09;;;;;;;24.20;13.70;;;3.70;99.90;;;;;;5003478;28;20441;-59
2021/12/19 13:14:38;;;;;;;20.73;12.87;;;3.70;99.90;;;;;;4998812;28;20831;-59
2021/12/19 13:17:13;;;;;;;22.07;11.70;;;3.70;99.90;;;;;;4999083;28;20897;-58
2021/12/19 13:19:44;;;;;;;24.43;11.83;;;3.80;99.90;;;;;;5001425;28;20434;-58
2021/12/19 13:22:15;;;;;;;27.13;14.50;;;3.80;99.90;;;;;;4994595;28;20450;-60
2021/12/19 13:24:41;;;;;;;20.40;12.60;;;3.90;99.90;;;;;;4993361;28;20458;-59
2021/12/19 13:27:10;;;;;;;22.30;12.27;;;4.00;99.90;;;;;;4999095;28;20465;-60
2021/12/19 13:29:37;;;;;;;20.13;11.30;;;4.10;99.90;;;;;;5006129;28;20529;-59
2021/12/19 13:32:24;;;;;;;17.73;10.77;;;4.20;99.90;;;;;;5001699;28;20447;-59
2021/12/19 13:34:51;;;;;;;22.37;12.00;;;4.30;99.90;;;;;;4996095;28;20447;-60
2021/12/19 13:37:17;;;;;;;20.70;12.03;;;4.40;99.90;;;;;;4996648;28;20442;-60